createdAt,value
2018-08-31T00:01:48.750Z,17.10
2018-08-31T00:04:58.233Z,17.10
2018-08-31T00:08:10.902Z,17.00
2018-08-31T00:11:20.604Z,17.00
2018-08-31T00:14:18.524Z,16.80
2018-08-31T00:17:16.317Z,16.80
2018-08-31T00:20:14.099Z,16.70
2018-08-31T00:23:11.916Z,16.80
2018-08-31T00:26:24.535Z,16.80
2018-08-31T00:29:45.266Z,16.80
2018-08-31T00:34:57.512Z,16.90
2018-08-31T00:39:08.334Z,16.90
2018-08-31T00:44:20.856Z,16.90
2018-08-31T00:47:18.443Z,16.80
2018-08-31T00:50:16.251Z,16.80
2018-08-31T00:53:15.228Z,16.80
2018-08-31T00:56:12.924Z,16.70
2018-08-31T00:59:10.713Z,16.70
2018-08-31T01:02:08.746Z,16.70
2018-08-31T01:05:06.335Z,16.80
2018-08-31T01:08:04.139Z,16.80
2018-08-31T01:11:02.040Z,16.70
2018-08-31T01:13:59.948Z,16.70
2018-08-31T01:16:57.670Z,16.80
2018-08-31T01:19:55.659Z,16.80
2018-08-31T01:22:53.621Z,16.70
2018-08-31T01:25:51.514Z,16.70
2018-08-31T01:28:49.365Z,16.70
2018-08-31T01:31:47.392Z,16.70
2018-08-31T01:34:45.196Z,16.70
2018-08-31T01:37:42.856Z,16.70
2018-08-31T01:40:40.533Z,16.60
2018-08-31T01:43:38.242Z,16.70
2018-08-31T01:46:35.897Z,16.70
2018-08-31T01:49:33.473Z,16.70
2018-08-31T01:52:31.227Z,16.60
2018-08-31T01:55:34.082Z,16.60
2018-08-31T01:58:31.759Z,16.70
2018-08-31T02:01:29.295Z,16.70
2018-08-31T02:04:27.067Z,16.60
2018-08-31T02:07:25.835Z,16.60
2018-08-31T02:10:23.485Z,16.60
2018-08-31T02:13:21.180Z,16.60
2018-08-31T02:16:19.063Z,16.60
2018-08-31T02:19:17.667Z,16.50
2018-08-31T02:22:15.226Z,16.30
2018-08-31T02:25:12.940Z,16.20
2018-08-31T02:28:10.844Z,16.10
2018-08-31T02:31:08.461Z,16.00
2018-08-31T02:34:06.138Z,16.00
2018-08-31T02:37:04.184Z,15.80
2018-08-31T02:40:02.094Z,15.80
2018-08-31T02:42:59.868Z,15.80
2018-08-31T02:45:57.542Z,15.80
2018-08-31T02:48:56.341Z,15.80
2018-08-31T02:51:54.100Z,15.80
2018-08-31T02:58:20.368Z,15.70
2018-08-31T03:01:19.186Z,15.70
2018-08-31T03:04:16.856Z,15.70
2018-08-31T03:07:14.355Z,15.60
2018-08-31T03:10:12.054Z,15.60
2018-08-31T03:13:09.583Z,15.70
2018-08-31T03:16:07.181Z,15.60
2018-08-31T03:19:04.978Z,15.70
2018-08-31T03:22:02.858Z,15.70
2018-08-31T03:25:00.614Z,15.70
2018-08-31T03:27:58.402Z,15.80
2018-08-31T03:30:56.223Z,15.70
2018-08-31T03:33:54.032Z,15.80
2018-08-31T03:36:51.792Z,15.70
2018-08-31T03:39:49.460Z,15.70
2018-08-31T03:42:47.220Z,15.70
2018-08-31T03:45:44.887Z,15.70
2018-08-31T03:48:42.654Z,15.60
2018-08-31T03:51:40.156Z,15.60
2018-08-31T03:54:37.744Z,15.60
2018-08-31T03:57:35.436Z,15.70
2018-08-31T04:00:33.195Z,15.70
2018-08-31T04:03:30.852Z,15.70
2018-08-31T04:06:28.608Z,15.60
2018-08-31T04:09:26.432Z,15.70
2018-08-31T04:12:24.337Z,15.70
2018-08-31T04:15:22.930Z,15.70
2018-08-31T04:18:20.737Z,15.70
2018-08-31T04:21:18.460Z,15.70
2018-08-31T04:24:17.390Z,15.70
2018-08-31T04:27:15.028Z,15.80
2018-08-31T04:30:13.963Z,15.80
2018-08-31T04:33:11.579Z,15.80
2018-08-31T04:36:09.406Z,15.80
2018-08-31T04:39:07.127Z,15.80
2018-08-31T04:42:05.073Z,15.80
2018-08-31T04:45:02.854Z,15.80
2018-08-31T04:48:00.525Z,15.80
2018-08-31T04:50:58.389Z,15.80
2018-08-31T04:53:56.237Z,15.80
2018-08-31T04:56:54.070Z,15.90
2018-08-31T04:59:51.766Z,15.90
2018-08-31T05:02:49.572Z,16.00
2018-08-31T05:05:47.305Z,16.00
2018-08-31T05:08:45.133Z,15.90
2018-08-31T05:11:42.745Z,15.90
2018-08-31T05:14:40.384Z,16.00
2018-08-31T05:17:38.154Z,15.90
2018-08-31T05:20:36.099Z,16.00
2018-08-31T05:23:33.907Z,16.00
2018-08-31T05:26:32.645Z,16.00
2018-08-31T05:29:31.461Z,16.00
2018-08-31T05:32:29.074Z,15.90
2018-08-31T05:35:33.769Z,15.90
2018-08-31T05:38:31.347Z,15.90
2018-08-31T05:41:29.147Z,15.90
2018-08-31T05:44:26.714Z,15.90
2018-08-31T05:47:24.704Z,16.00
2018-08-31T05:50:22.359Z,16.00
2018-08-31T05:53:20.177Z,16.00
2018-08-31T05:56:23.980Z,16.00
2018-08-31T05:59:21.570Z,16.00
2018-08-31T06:02:19.376Z,16.10
2018-08-31T06:05:17.161Z,16.10
2018-08-31T06:08:14.956Z,16.00
2018-08-31T06:11:12.925Z,16.10
2018-08-31T06:14:10.580Z,16.20
2018-08-31T06:17:08.387Z,16.20
2018-08-31T06:20:06.249Z,16.30
2018-08-31T06:23:03.835Z,16.30
2018-08-31T06:26:01.620Z,16.30
2018-08-31T06:28:59.498Z,16.30
2018-08-31T06:31:57.983Z,16.40
2018-08-31T06:34:56.172Z,16.50
2018-08-31T06:37:53.817Z,16.50
2018-08-31T06:40:51.651Z,16.50
2018-08-31T06:43:49.222Z,16.50
2018-08-31T06:46:46.959Z,16.50
2018-08-31T06:49:44.510Z,16.60
2018-08-31T06:52:43.375Z,16.60
2018-08-31T06:55:40.751Z,16.70
2018-08-31T06:58:38.428Z,16.60
2018-08-31T07:01:36.255Z,16.60
2018-08-31T07:04:33.974Z,16.60
2018-08-31T07:07:31.716Z,16.70
2018-08-31T07:10:29.479Z,16.70
2018-08-31T07:13:27.078Z,16.60
2018-08-31T07:16:24.935Z,16.70
2018-08-31T07:19:22.664Z,16.70
2018-08-31T07:22:20.415Z,16.80
2018-08-31T07:25:18.081Z,16.80
2018-08-31T07:28:15.911Z,16.90
2018-08-31T07:31:13.503Z,16.90
2018-08-31T07:34:13.321Z,17.00
2018-08-31T07:37:11.162Z,17.00
2018-08-31T07:40:10.128Z,17.00
2018-08-31T07:43:08.060Z,16.90
2018-08-31T07:46:05.800Z,16.90
2018-08-31T07:49:03.502Z,17.00
2018-08-31T07:52:01.213Z,17.00
2018-08-31T07:54:59.012Z,17.00
2018-08-31T07:57:56.590Z,17.10
2018-08-31T08:00:54.361Z,17.30
2018-08-31T08:03:52.042Z,17.40
2018-08-31T08:06:49.759Z,17.30
2018-08-31T08:09:48.514Z,17.40
2018-08-31T08:12:46.258Z,17.50
2018-08-31T08:15:44.079Z,17.50
2018-08-31T08:18:41.807Z,17.60
2018-08-31T08:21:39.688Z,17.70
2018-08-31T08:24:37.359Z,17.80
2018-08-31T08:27:35.342Z,17.80
2018-08-31T08:30:34.191Z,17.90
2018-08-31T08:33:31.854Z,17.80
2018-08-31T08:36:29.720Z,17.90
2018-08-31T08:39:30.335Z,17.90
2018-08-31T08:42:28.454Z,18.00
2018-08-31T08:45:25.803Z,17.90
2018-08-31T08:48:23.644Z,18.00
2018-08-31T08:51:21.237Z,17.80
2018-08-31T08:54:19.079Z,17.90
2018-08-31T08:57:16.753Z,17.80
2018-08-31T09:00:14.710Z,17.80
2018-08-31T09:03:12.474Z,17.90
2018-08-31T09:06:10.331Z,17.90
2018-08-31T09:09:07.938Z,18.00
2018-08-31T09:12:05.585Z,18.10
2018-08-31T09:15:03.456Z,18.20
2018-08-31T09:18:01.330Z,18.30
2018-08-31T09:20:59.124Z,18.30
2018-08-31T09:23:56.869Z,18.30
2018-08-31T09:26:54.320Z,18.20
2018-08-31T09:29:53.178Z,18.30
2018-08-31T09:32:50.959Z,18.20
2018-08-31T09:35:48.515Z,18.20
2018-08-31T09:38:47.321Z,18.20
2018-08-31T09:41:46.089Z,18.20
2018-08-31T09:44:43.699Z,18.10
2018-08-31T09:47:41.433Z,18.10
2018-08-31T09:50:39.140Z,18.10
2018-08-31T09:53:37.073Z,18.00
2018-08-31T09:56:35.141Z,18.10
2018-08-31T09:59:32.608Z,18.00
2018-08-31T10:02:36.423Z,18.10
2018-08-31T10:05:34.991Z,18.20
2018-08-31T10:08:34.868Z,18.10
2018-08-31T10:11:33.804Z,18.10
2018-08-31T10:14:32.476Z,18.10
2018-08-31T10:17:30.102Z,18.10
2018-08-31T10:20:27.757Z,18.10
2018-08-31T10:23:25.368Z,18.00
2018-08-31T10:26:23.404Z,18.00
2018-08-31T10:29:21.223Z,18.10
2018-08-31T10:32:18.686Z,18.10
2018-08-31T10:35:16.401Z,18.20
2018-08-31T10:38:14.125Z,18.10
2018-08-31T10:41:11.843Z,18.10
2018-08-31T10:44:09.551Z,18.20
2018-08-31T10:47:07.024Z,18.30
2018-08-31T10:50:04.914Z,18.30
2018-08-31T10:53:02.588Z,18.40
2018-08-31T10:56:00.378Z,18.30
2018-08-31T10:58:58.091Z,18.40
2018-08-31T11:01:55.945Z,18.60
2018-08-31T11:04:53.656Z,18.70
2018-08-31T11:07:51.455Z,18.80
2018-08-31T11:10:49.050Z,18.80
2018-08-31T11:13:46.733Z,18.80
2018-08-31T11:16:44.450Z,18.90
2018-08-31T11:19:42.010Z,18.90
2018-08-31T11:22:39.727Z,18.90
2018-08-31T11:26:08.630Z,18.80
2018-08-31T11:29:06.111Z,18.80
2018-08-31T11:32:04.030Z,18.70
2018-08-31T11:35:01.755Z,18.60
2018-08-31T11:37:59.517Z,18.70
2018-08-31T11:40:57.282Z,18.80
2018-08-31T11:43:55.078Z,18.60
2018-08-31T11:46:52.981Z,18.60
2018-08-31T11:49:50.698Z,18.30
2018-08-31T11:52:48.569Z,18.40
2018-08-31T11:55:48.241Z,18.40
2018-08-31T11:58:46.047Z,18.40
2018-08-31T12:01:43.828Z,18.40
2018-08-31T12:04:41.360Z,18.40
2018-08-31T12:07:41.281Z,18.50
2018-08-31T12:10:40.032Z,18.40
2018-08-31T12:13:37.656Z,18.50
2018-08-31T12:16:35.182Z,18.40
2018-08-31T12:19:32.728Z,18.40
2018-08-31T12:22:30.408Z,18.30
2018-08-31T12:25:28.093Z,18.30
2018-08-31T12:28:25.675Z,18.30
2018-08-31T12:31:23.560Z,18.30
2018-08-31T12:34:21.258Z,18.30
2018-08-31T12:37:19.080Z,18.20
2018-08-31T12:40:16.909Z,18.00
2018-08-31T12:43:14.642Z,18.00
2018-08-31T12:46:12.345Z,18.00
2018-08-31T12:49:10.201Z,18.00
2018-08-31T12:52:07.782Z,18.00
2018-08-31T12:55:05.466Z,17.90
2018-08-31T12:58:03.217Z,17.80
2018-08-31T13:01:00.900Z,17.70
2018-08-31T13:03:58.753Z,17.70
2018-08-31T13:06:56.639Z,17.60
2018-08-31T13:09:54.410Z,17.70
2018-08-31T13:12:51.958Z,17.60
2018-08-31T13:15:50.665Z,17.60
2018-08-31T13:18:48.656Z,17.60
2018-08-31T13:21:46.458Z,17.60
2018-08-31T13:24:44.223Z,17.70
2018-08-31T13:27:42.154Z,17.70
2018-08-31T13:30:39.747Z,17.70
2018-08-31T13:33:37.613Z,17.60
2018-08-31T13:36:35.310Z,17.60
2018-08-31T13:39:33.163Z,17.60
2018-08-31T13:42:30.891Z,17.50
2018-08-31T13:45:28.579Z,17.50
2018-08-31T13:48:26.378Z,17.50
2018-08-31T13:51:23.999Z,17.60
2018-08-31T13:54:21.706Z,17.60
2018-08-31T13:57:19.348Z,17.50
2018-08-31T14:00:18.091Z,17.40
2018-08-31T14:03:15.874Z,17.50
2018-08-31T14:06:13.701Z,17.60
2018-08-31T14:09:12.233Z,17.50
2018-08-31T14:12:11.241Z,17.50
2018-08-31T14:15:08.796Z,17.40
2018-08-31T14:18:06.521Z,17.40
2018-08-31T14:21:04.268Z,17.40
2018-08-31T14:24:02.178Z,17.40
2018-08-31T14:26:59.772Z,17.30
2018-08-31T14:29:58.869Z,17.20
2018-08-31T14:32:56.744Z,17.30
2018-08-31T14:35:54.398Z,17.20
2018-08-31T14:38:51.991Z,17.20
2018-08-31T14:41:49.765Z,17.20
2018-08-31T14:44:47.471Z,17.20
2018-08-31T14:47:45.227Z,17.20
2018-08-31T14:50:42.857Z,17.20
2018-08-31T14:53:40.555Z,17.30
2018-08-31T14:56:38.286Z,17.30
2018-08-31T14:59:36.155Z,17.30
2018-08-31T15:02:33.839Z,17.20
2018-08-31T15:05:31.916Z,17.20
2018-08-31T15:08:30.816Z,17.10
2018-08-31T15:11:28.618Z,17.00
2018-08-31T15:14:26.519Z,17.00
2018-08-31T15:17:24.229Z,16.90
2018-08-31T15:20:23.090Z,17.00
2018-08-31T15:23:20.831Z,16.90
2018-08-31T15:26:18.629Z,16.80
2018-08-31T15:29:17.491Z,16.80
2018-08-31T15:32:15.044Z,16.80
2018-08-31T15:35:13.054Z,16.80
2018-08-31T15:38:10.379Z,16.70
2018-08-31T15:41:08.249Z,16.70
2018-08-31T15:44:06.000Z,16.60
2018-08-31T15:47:05.909Z,16.60
2018-08-31T15:50:12.658Z,16.60
2018-08-31T15:53:10.769Z,16.60
2018-08-31T15:56:08.389Z,16.50
2018-08-31T15:59:06.373Z,16.40
2018-08-31T16:02:03.815Z,16.30
2018-08-31T16:05:01.659Z,16.30
2018-08-31T16:07:59.623Z,16.20
2018-08-31T16:10:57.549Z,16.20
2018-08-31T16:13:55.210Z,16.10
2018-08-31T16:16:53.778Z,16.10
2018-08-31T16:19:51.334Z,16.20
2018-08-31T16:22:49.119Z,16.20
2018-08-31T16:25:46.916Z,16.20
2018-08-31T16:28:44.749Z,16.20
2018-08-31T16:31:42.260Z,16.20
2018-08-31T16:34:40.403Z,16.20
2018-08-31T16:37:38.099Z,16.20
2018-08-31T16:40:35.978Z,16.20
2018-08-31T16:43:33.761Z,16.10
2018-08-31T16:46:32.496Z,16.10
2018-08-31T16:49:30.175Z,16.10
2018-08-31T16:52:28.247Z,16.10
2018-08-31T16:55:25.924Z,16.10
2018-08-31T16:58:23.830Z,16.10
2018-08-31T17:01:21.459Z,16.10
2018-08-31T17:04:19.711Z,16.10
2018-08-31T17:07:17.331Z,16.00
2018-08-31T17:10:15.074Z,16.10
2018-08-31T17:13:12.931Z,16.10
2018-08-31T17:16:10.882Z,16.10
2018-08-31T17:19:08.651Z,16.00
2018-08-31T17:22:06.663Z,16.00
2018-08-31T17:25:04.423Z,16.10
2018-08-31T17:28:08.044Z,16.00
2018-08-31T17:31:11.708Z,15.90
2018-08-31T17:34:15.275Z,15.90
2018-08-31T17:37:19.122Z,15.80
2018-08-31T17:40:16.801Z,15.80
2018-08-31T17:43:14.594Z,15.80
2018-08-31T17:46:12.092Z,15.70
2018-08-31T17:49:10.870Z,15.70
2018-08-31T17:52:08.750Z,15.70
2018-08-31T17:55:06.800Z,15.70
2018-08-31T17:58:04.256Z,15.70
2018-08-31T18:01:02.144Z,15.70
2018-08-31T18:04:01.235Z,15.60
2018-08-31T18:06:58.761Z,15.60
2018-08-31T18:09:56.623Z,15.60
2018-08-31T18:12:54.377Z,15.60
2018-08-31T18:15:52.056Z,15.50
2018-08-31T18:18:49.763Z,15.50
2018-08-31T18:21:47.224Z,15.50
2018-08-31T18:24:45.115Z,15.50
2018-08-31T18:27:59.035Z,15.50
2018-08-31T18:30:56.913Z,15.50
2018-08-31T18:33:54.916Z,15.50
2018-08-31T18:36:52.559Z,15.50
2018-08-31T18:39:50.400Z,15.50
2018-08-31T18:42:48.009Z,15.50
2018-08-31T18:45:45.729Z,15.50
2018-08-31T18:48:43.336Z,15.50
2018-08-31T18:51:40.919Z,15.50
2018-08-31T18:54:38.593Z,15.50
2018-08-31T18:57:36.409Z,15.40
2018-08-31T19:00:34.133Z,15.50
2018-08-31T19:03:31.921Z,15.40
2018-08-31T19:06:29.701Z,15.50
2018-08-31T19:09:28.405Z,15.40
2018-08-31T19:12:26.012Z,15.50
2018-08-31T19:15:24.076Z,15.40
2018-08-31T19:18:21.566Z,15.40
2018-08-31T19:21:19.413Z,15.40
2018-08-31T19:24:17.907Z,15.40
2018-08-31T19:27:15.754Z,15.40
2018-08-31T19:30:13.376Z,15.40
2018-08-31T19:33:11.243Z,15.40
2018-08-31T19:36:08.969Z,15.40
2018-08-31T19:39:06.914Z,15.40
2018-08-31T19:42:04.737Z,15.40
2018-08-31T19:45:02.601Z,15.40
2018-08-31T19:48:00.872Z,15.40
2018-08-31T19:50:58.164Z,15.40
2018-08-31T19:53:55.945Z,15.40
2018-08-31T19:56:53.686Z,15.40
2018-08-31T19:59:51.225Z,15.30
2018-08-31T20:02:49.014Z,15.40
2018-08-31T20:05:46.843Z,15.30
2018-08-31T20:08:44.558Z,15.40
2018-08-31T20:11:42.341Z,15.40
2018-08-31T20:14:40.240Z,15.40
2018-08-31T20:17:38.174Z,15.40
2018-08-31T20:20:35.827Z,15.30
2018-08-31T20:23:33.632Z,15.40
2018-08-31T20:26:31.315Z,15.40
2018-08-31T20:29:28.829Z,15.40
2018-08-31T20:32:26.681Z,15.30
2018-08-31T20:35:24.487Z,15.30
2018-08-31T20:38:22.385Z,15.30
2018-08-31T20:41:20.200Z,15.30
2018-08-31T20:44:17.926Z,15.30
2018-08-31T20:47:15.411Z,15.20
2018-08-31T20:50:13.170Z,15.20
2018-08-31T20:53:10.786Z,15.20
2018-08-31T20:56:10.502Z,15.20
2018-08-31T20:59:08.256Z,15.20
2018-08-31T21:02:06.057Z,15.20
2018-08-31T21:05:03.812Z,15.20
2018-08-31T21:08:01.512Z,15.20
2018-08-31T21:10:59.304Z,15.20
2018-08-31T21:13:57.023Z,15.20
2018-08-31T21:16:55.264Z,15.20
2018-08-31T21:19:52.480Z,15.20
2018-08-31T21:22:50.154Z,15.20
2018-08-31T21:25:48.995Z,15.20
2018-08-31T21:28:46.764Z,15.30
2018-08-31T21:31:44.399Z,15.30
2018-08-31T21:34:42.108Z,15.30
2018-08-31T21:37:39.900Z,15.40
2018-08-31T21:40:37.265Z,15.40
2018-08-31T21:43:35.075Z,15.40
2018-08-31T21:46:32.887Z,15.30
2018-08-31T21:49:30.693Z,15.40
2018-08-31T21:52:28.225Z,15.40
2018-08-31T21:55:25.995Z,15.40
2018-08-31T21:58:23.733Z,15.40
2018-08-31T22:01:27.366Z,15.40
2018-08-31T22:04:25.094Z,15.50
2018-08-31T22:07:23.010Z,15.40
2018-08-31T22:10:21.708Z,15.50
2018-08-31T22:13:19.630Z,15.40
2018-08-31T22:16:17.466Z,15.40
2018-08-31T22:19:16.010Z,15.40
2018-08-31T22:22:13.694Z,15.40
2018-08-31T22:25:11.508Z,15.50
2018-08-31T22:28:09.234Z,15.40
2018-08-31T22:31:07.060Z,15.40
2018-08-31T22:34:04.766Z,15.40
2018-08-31T22:37:02.611Z,15.40
2018-08-31T22:40:00.405Z,15.30
2018-08-31T22:42:58.174Z,15.40
2018-08-31T22:45:56.186Z,15.40
2018-08-31T22:48:53.757Z,15.50
2018-08-31T22:51:51.580Z,15.50
2018-08-31T22:54:49.261Z,15.40
2018-08-31T22:57:47.015Z,15.50
2018-08-31T23:00:45.497Z,15.40
2018-08-31T23:03:43.632Z,15.40
2018-08-31T23:06:41.252Z,15.40
2018-08-31T23:09:38.812Z,15.40
2018-08-31T23:12:36.512Z,15.40
2018-08-31T23:15:34.335Z,15.30
2018-08-31T23:18:32.103Z,15.30
2018-08-31T23:21:29.708Z,15.30
2018-08-31T23:24:27.345Z,15.30
2018-08-31T23:27:24.951Z,15.30
2018-08-31T23:30:22.487Z,15.30
2018-08-31T23:33:20.239Z,15.40
2018-08-31T23:36:17.855Z,15.30
2018-08-31T23:39:16.728Z,15.30
2018-08-31T23:42:14.559Z,15.30
2018-08-31T23:45:12.394Z,15.30
2018-08-31T23:48:10.894Z,15.30
2018-08-31T23:51:09.058Z,15.30
2018-08-31T23:54:06.774Z,15.40
2018-08-31T23:57:04.695Z,15.30
